FCK2FT EDDS-EDDM
Flight info
| Callsign | FCK2FT |
|---|---|
| Flight time | N/A |
| Altitude | 10000 |
| Route | ABTAL4B ABTAL L173 RIXED Y161 RIDAR Z98 WLD T104 ROKIL ROKIL1B |
| Aircraft | BE20/L-SBGRY/S |
Departure
| Time | 2026-05-05 17:42 |
|---|---|
| Airport | Stuttgart Airport (EDDS) |
Arrival
| Time | N/A |
|---|---|
| Airport | Munich Airport (EDDM) |
| Time | Latitude | Longitude | Altitude | Speed | Heading |
|---|---|---|---|---|---|
| 2026-05-05 17:33 | 48.69130 | 9.21257 | 1265 ft | 0 kts | 165° |
| 2026-05-05 17:38 | 48.69121 | 9.21261 | 1263 ft | 5 kts | 163° |
| 2026-05-05 17:39 | 48.69083 | 9.21331 | 1259 ft | 14 kts | 78° |
| 2026-05-05 17:39 | 48.69122 | 9.21532 | 1263 ft | 26 kts | 73° |
| 2026-05-05 17:39 | 48.69182 | 9.21839 | 1250 ft | 35 kts | 74° |
| 2026-05-05 17:39 | 48.69253 | 9.22222 | 1242 ft | 38 kts | 71° |
| 2026-05-05 17:40 | 48.69283 | 9.22440 | 1232 ft | 14 kts | 107° |
| 2026-05-05 17:40 | 48.69166 | 9.22516 | 1224 ft | 18 kts | 165° |
| 2026-05-05 17:40 | 48.69141 | 9.22527 | 1222 ft | 1 kts | 163° |
| 2026-05-05 17:40 | 48.69100 | 9.22548 | 1221 ft | 11 kts | 161° |
| 2026-05-05 17:41 | 48.69040 | 9.22475 | 1223 ft | 5 kts | 253° |
| 2026-05-05 17:41 | 48.69040 | 9.22473 | 1223 ft | 0 kts | 254° |
| 2026-05-05 17:41 | 48.69031 | 9.22423 | 1227 ft | 27 kts | 256° |
| 2026-05-05 17:41 | 48.68911 | 9.21785 | 1249 ft | 96 kts | 254° |
| 2026-05-05 17:42 | 48.68688 | 9.20601 | 1329 ft | 137 kts | 255° |
| 2026-05-05 17:42 | 48.68400 | 9.19091 | 1700 ft | 159 kts | 256° |
| 2026-05-05 17:42 | 48.68096 | 9.17517 | 2421 ft | 154 kts | 251° |
| 2026-05-05 17:42 | 48.67789 | 9.15954 | 3028 ft | 156 kts | 253° |
| 2026-05-05 17:43 | 48.67498 | 9.14402 | 3861 ft | 152 kts | 252° |
| 2026-05-05 17:43 | 48.67206 | 9.12888 | 4721 ft | 149 kts | 251° |
| 2026-05-05 17:43 | 48.66912 | 9.11380 | 5490 ft | 148 kts | 248° |
| 2026-05-05 17:43 | 48.66282 | 9.10211 | 6272 ft | 147 kts | 208° |
| 2026-05-05 17:44 | 48.65266 | 9.10006 | 7008 ft | 156 kts | 171° |
| 2026-05-05 17:44 | 48.64244 | 9.10628 | 7756 ft | 159 kts | 163° |
| 2026-05-05 17:44 | 48.63220 | 9.11311 | 8479 ft | 162 kts | 162° |
| 2026-05-05 17:44 | 48.62236 | 9.12192 | 9206 ft | 171 kts | 144° |
| 2026-05-05 17:45 | 48.61546 | 9.13707 | 9932 ft | 183 kts | 117° |
| 2026-05-05 17:45 | 48.61383 | 9.15628 | 10617 ft | 192 kts | 90° |
| 2026-05-05 17:45 | 48.61484 | 9.17656 | 11314 ft | 193 kts | 91° |
| 2026-05-05 17:45 | 48.61571 | 9.19684 | 12041 ft | 195 kts | 90° |
| 2026-05-05 17:46 | 48.61640 | 9.21716 | 12783 ft | 194 kts | 93° |
| 2026-05-05 17:46 | 48.61631 | 9.23748 | 13503 ft | 193 kts | 95° |
| 2026-05-05 17:46 | 48.61591 | 9.25811 | 13946 ft | 209 kts | 95° |
| 2026-05-05 17:46 | 48.61541 | 9.28182 | 13978 ft | 240 kts | 95° |
| 2026-05-05 17:47 | 48.61499 | 9.30817 | 13994 ft | 261 kts | 94° |
| 2026-05-05 17:47 | 48.61467 | 9.33424 | 13993 ft | 272 kts | 94° |
| 2026-05-05 17:47 | 48.61436 | 9.36287 | 13990 ft | 279 kts | 94° |
| 2026-05-05 17:47 | 48.61404 | 9.39233 | 14005 ft | 282 kts | 94° |
| 2026-05-05 17:48 | 48.61370 | 9.42206 | 14004 ft | 284 kts | 94° |
| 2026-05-05 17:48 | 48.61334 | 9.45193 | 14005 ft | 284 kts | 94° |
| 2026-05-05 17:48 | 48.61297 | 9.48176 | 14007 ft | 285 kts | 94° |
| 2026-05-05 17:48 | 48.61259 | 9.51173 | 14009 ft | 285 kts | 94° |
| 2026-05-05 17:49 | 48.61219 | 9.54170 | 14010 ft | 285 kts | 94° |
| 2026-05-05 17:49 | 48.61182 | 9.57007 | 14013 ft | 285 kts | 94° |
| 2026-05-05 17:49 | 48.61140 | 9.59998 | 14008 ft | 284 kts | 94° |
| 2026-05-05 17:49 | 48.61099 | 9.62977 | 14013 ft | 284 kts | 94° |
| 2026-05-05 17:50 | 48.61057 | 9.65950 | 14011 ft | 283 kts | 94° |
| 2026-05-05 17:50 | 48.61013 | 9.68921 | 14010 ft | 283 kts | 94° |
| 2026-05-05 17:50 | 48.60970 | 9.71856 | 14010 ft | 283 kts | 94° |
| 2026-05-05 17:50 | 48.60925 | 9.74833 | 14030 ft | 284 kts | 94° |
| 2026-05-05 17:51 | 48.60879 | 9.77829 | 14034 ft | 286 kts | 94° |
| 2026-05-05 17:51 | 48.60832 | 9.80829 | 14030 ft | 287 kts | 94° |
| 2026-05-05 17:51 | 48.60783 | 9.83842 | 14027 ft | 286 kts | 94° |
| 2026-05-05 17:51 | 48.60732 | 9.86846 | 14022 ft | 286 kts | 94° |
| 2026-05-05 17:52 | 48.60685 | 9.89856 | 14013 ft | 287 kts | 94° |
| 2026-05-05 17:52 | 48.60636 | 9.92864 | 13990 ft | 285 kts | 94° |
| 2026-05-05 17:52 | 48.60587 | 9.95838 | 13976 ft | 282 kts | 94° |
| 2026-05-05 17:52 | 48.60538 | 9.98779 | 13976 ft | 279 kts | 94° |
| 2026-05-05 17:53 | 48.60489 | 10.01662 | 13988 ft | 277 kts | 94° |
| 2026-05-05 17:53 | 48.60439 | 10.04437 | 13988 ft | 276 kts | 94° |
| 2026-05-05 17:53 | 48.60388 | 10.07329 | 13994 ft | 275 kts | 94° |
| 2026-05-05 17:53 | 48.60335 | 10.10214 | 14002 ft | 275 kts | 94° |
| 2026-05-05 17:54 | 48.60282 | 10.13092 | 14004 ft | 274 kts | 94° |
| 2026-05-05 17:54 | 48.60229 | 10.15959 | 14005 ft | 273 kts | 95° |
| 2026-05-05 17:54 | 48.60175 | 10.18825 | 14011 ft | 272 kts | 94° |
| 2026-05-05 17:54 | 48.60121 | 10.21676 | 14013 ft | 272 kts | 95° |
| 2026-05-05 17:55 | 48.60065 | 10.24537 | 14009 ft | 272 kts | 95° |
| 2026-05-05 17:55 | 48.60011 | 10.27294 | 14010 ft | 272 kts | 95° |
| 2026-05-05 17:55 | 48.59955 | 10.30105 | 14011 ft | 271 kts | 95° |
| 2026-05-05 17:55 | 48.59898 | 10.32954 | 14012 ft | 272 kts | 95° |
| 2026-05-05 17:56 | 48.59840 | 10.35801 | 14010 ft | 272 kts | 95° |
| 2026-05-05 17:56 | 48.59781 | 10.38649 | 14005 ft | 271 kts | 95° |
| 2026-05-05 17:56 | 48.59722 | 10.41491 | 14004 ft | 270 kts | 95° |
| 2026-05-05 17:56 | 48.59663 | 10.44321 | 14004 ft | 270 kts | 95° |
| 2026-05-05 17:57 | 48.59602 | 10.47150 | 13996 ft | 269 kts | 96° |
| 2026-05-05 17:57 | 48.59544 | 10.49825 | 14005 ft | 269 kts | 96° |
| 2026-05-05 17:57 | 48.59482 | 10.52650 | 14012 ft | 270 kts | 96° |
| 2026-05-05 17:57 | 48.59420 | 10.55447 | 14012 ft | 270 kts | 96° |
| 2026-05-05 17:58 | 48.59357 | 10.58275 | 14001 ft | 269 kts | 96° |
| 2026-05-05 17:58 | 48.59295 | 10.61092 | 14003 ft | 268 kts | 96° |
| 2026-05-05 17:58 | 48.59231 | 10.63892 | 14002 ft | 266 kts | 96° |
| 2026-05-05 17:58 | 48.59168 | 10.66678 | 13973 ft | 266 kts | 96° |
| 2026-05-05 17:59 | 48.59083 | 10.69530 | 13623 ft | 275 kts | 99° |
| 2026-05-05 17:59 | 48.58898 | 10.71433 | 13362 ft | 276 kts | 107° |
| 2026-05-05 17:59 | 48.58195 | 10.74801 | 12870 ft | 276 kts | 111° |
| 2026-05-05 17:59 | 48.57641 | 10.77587 | 12466 ft | 278 kts | 110° |
| 2026-05-05 18:00 | 48.57111 | 10.80389 | 12068 ft | 278 kts | 110° |
| 2026-05-05 18:00 | 48.56583 | 10.83194 | 11691 ft | 278 kts | 110° |
| 2026-05-05 18:00 | 48.56057 | 10.85963 | 11327 ft | 278 kts | 110° |
| 2026-05-05 18:00 | 48.55519 | 10.88765 | 11042 ft | 274 kts | 110° |
| 2026-05-05 18:01 | 48.54997 | 10.91471 | 11012 ft | 264 kts | 110° |
| 2026-05-05 18:01 | 48.54488 | 10.94093 | 10994 ft | 258 kts | 110° |
| 2026-05-05 18:01 | 48.54024 | 10.96463 | 10979 ft | 255 kts | 110° |
| 2026-05-05 18:01 | 48.53521 | 10.99016 | 10959 ft | 254 kts | 110° |
| 2026-05-05 18:02 | 48.53001 | 11.01627 | 10591 ft | 265 kts | 110° |
| 2026-05-05 18:02 | 48.52465 | 11.04318 | 10223 ft | 270 kts | 110° |
| 2026-05-05 18:02 | 48.51922 | 11.07049 | 9860 ft | 275 kts | 110° |
| 2026-05-05 18:02 | 48.51367 | 11.09843 | 9510 ft | 281 kts | 110° |
| 2026-05-05 18:03 | 48.50804 | 11.12681 | 9112 ft | 283 kts | 110° |
| 2026-05-05 18:03 | 48.50242 | 11.15518 | 8872 ft | 279 kts | 110° |
| 2026-05-05 18:03 | 48.49701 | 11.18251 | 8843 ft | 272 kts | 110° |
| 2026-05-05 18:03 | 48.49162 | 11.20962 | 8826 ft | 268 kts | 110° |
| 2026-05-05 18:04 | 48.48628 | 11.23638 | 8820 ft | 266 kts | 110° |
| 2026-05-05 18:04 | 48.48095 | 11.26298 | 8797 ft | 265 kts | 110° |
| 2026-05-05 18:04 | 48.47563 | 11.28951 | 8805 ft | 265 kts | 109° |
| 2026-05-05 18:04 | 48.47028 | 11.31617 | 8796 ft | 267 kts | 109° |
| 2026-05-05 18:05 | 48.46481 | 11.34336 | 8438 ft | 276 kts | 110° |
| 2026-05-05 18:05 | 48.45918 | 11.37127 | 8070 ft | 280 kts | 110° |
| 2026-05-05 18:05 | 48.45354 | 11.39932 | 7856 ft | 276 kts | 108° |
| 2026-05-05 18:05 | 48.44861 | 11.42385 | 7828 ft | 271 kts | 108° |
| 2026-05-05 18:06 | 48.44363 | 11.44860 | 7812 ft | 267 kts | 109° |
| 2026-05-05 18:06 | 48.44181 | 11.45759 | 7801 ft | 266 kts | 110° |
| 2026-05-05 18:06 | 48.43347 | 11.50157 | 7785 ft | 260 kts | 100° |
| 2026-05-05 18:06 | 48.43454 | 11.52868 | 7792 ft | 260 kts | 85° |
| 2026-05-05 18:07 | 48.43674 | 11.55589 | 7794 ft | 263 kts | 84° |
| 2026-05-05 18:07 | 48.43882 | 11.58335 | 7696 ft | 267 kts | 86° |
| 2026-05-05 18:07 | 48.44089 | 11.61168 | 7320 ft | 276 kts | 85° |
| 2026-05-05 18:07 | 48.44298 | 11.64057 | 6952 ft | 279 kts | 85° |
| 2026-05-05 18:08 | 48.44502 | 11.66905 | 6597 ft | 279 kts | 85° |
| 2026-05-05 18:08 | 48.44703 | 11.69720 | 6249 ft | 278 kts | 84° |
| 2026-05-05 18:08 | 48.44909 | 11.72604 | 5870 ft | 278 kts | 84° |
| 2026-05-05 18:08 | 48.45111 | 11.75468 | 5493 ft | 279 kts | 84° |
| 2026-05-05 18:09 | 48.45316 | 11.78367 | 5130 ft | 278 kts | 83° |
| 2026-05-05 18:09 | 48.45516 | 11.81237 | 5075 ft | 272 kts | 83° |
| 2026-05-05 18:09 | 48.45712 | 11.84036 | 5028 ft | 266 kts | 84° |
| 2026-05-05 18:09 | 48.45905 | 11.86791 | 5005 ft | 263 kts | 83° |
| 2026-05-05 18:10 | 48.46074 | 11.89220 | 4987 ft | 261 kts | 84° |
| 2026-05-05 18:10 | 48.46254 | 11.91801 | 4652 ft | 270 kts | 83° |
| 2026-05-05 18:10 | 48.46451 | 11.94647 | 4267 ft | 275 kts | 84° |
| 2026-05-05 18:10 | 48.46641 | 11.97409 | 4051 ft | 271 kts | 83° |
| 2026-05-05 18:11 | 48.46831 | 12.00194 | 4011 ft | 264 kts | 83° |
| 2026-05-05 18:11 | 48.46987 | 12.02883 | 3984 ft | 260 kts | 84° |
| 2026-05-05 18:11 | 48.47145 | 12.05587 | 3970 ft | 258 kts | 84° |
| 2026-05-05 18:11 | 48.47305 | 12.08267 | 3959 ft | 254 kts | 86° |
| 2026-05-05 18:12 | 48.46989 | 12.10626 | 3962 ft | 253 kts | 120° |
| 2026-05-05 18:12 | 48.45793 | 12.12354 | 3968 ft | 252 kts | 157° |
| 2026-05-05 18:12 | 48.44106 | 12.13152 | 3979 ft | 249 kts | 169° |
| 2026-05-05 18:12 | 48.42417 | 12.13505 | 3952 ft | 243 kts | 189° |
| 2026-05-05 18:13 | 48.40938 | 12.12408 | 3966 ft | 238 kts | 226° |
| 2026-05-05 18:13 | 48.39811 | 12.10601 | 3975 ft | 230 kts | 234° |
| 2026-05-05 18:13 | 48.39038 | 12.08575 | 3953 ft | 220 kts | 250° |
| 2026-05-05 18:13 | 48.38611 | 12.06436 | 3958 ft | 216 kts | 259° |
| 2026-05-05 18:14 | 48.38364 | 12.04230 | 3949 ft | 209 kts | 265° |
| 2026-05-05 18:14 | 48.38217 | 12.02081 | 3947 ft | 208 kts | 266° |
| 2026-05-05 18:14 | 48.38074 | 11.99899 | 3814 ft | 211 kts | 264° |
| 2026-05-05 18:14 | 48.37891 | 11.97729 | 3636 ft | 207 kts | 265° |
| 2026-05-05 18:15 | 48.37724 | 11.95613 | 3557 ft | 200 kts | 266° |
| 2026-05-05 18:15 | 48.37567 | 11.93536 | 3353 ft | 200 kts | 265° |
| 2026-05-05 18:15 | 48.37411 | 11.91466 | 3172 ft | 194 kts | 269° |
| 2026-05-05 18:15 | 48.37268 | 11.89442 | 2924 ft | 199 kts | 263° |
| 2026-05-05 18:16 | 48.37080 | 11.87431 | 2628 ft | 195 kts | 265° |
| 2026-05-05 18:16 | 48.36926 | 11.85431 | 2301 ft | 191 kts | 267° |
| 2026-05-05 18:16 | 48.36826 | 11.83480 | 1892 ft | 188 kts | 264° |
| 2026-05-05 18:16 | 48.36721 | 11.81601 | 1862 ft | 176 kts | 264° |
| 2026-05-05 18:17 | 48.37043 | 11.79919 | 2662 ft | 167 kts | 315° |
| 2026-05-05 18:17 | 48.38135 | 11.79426 | 3427 ft | 180 kts | 7° |
| 2026-05-05 18:17 | 48.39278 | 11.80458 | 3738 ft | 209 kts | 37° |
| 2026-05-05 18:17 | 48.40433 | 11.82040 | 3657 ft | 236 kts | 40° |
| 2026-05-05 18:18 | 48.41598 | 11.83844 | 3600 ft | 243 kts | 52° |
| 2026-05-05 18:18 | 48.42124 | 11.86278 | 3603 ft | 249 kts | 79° |
| 2026-05-05 18:18 | 48.42279 | 11.87996 | 3592 ft | 252 kts | 81° |
| 2026-05-05 18:18 | 48.42475 | 11.90637 | 3553 ft | 254 kts | 83° |
| 2026-05-05 18:19 | 48.42652 | 11.93284 | 3535 ft | 254 kts | 83° |
| 2026-05-05 18:19 | 48.42859 | 11.96785 | 3499 ft | 251 kts | 86° |
| 2026-05-05 18:19 | 48.42377 | 11.99231 | 3493 ft | 238 kts | 127° |
| 2026-05-05 18:19 | 48.41110 | 12.00552 | 3497 ft | 216 kts | 170° |
| 2026-05-05 18:20 | 48.39720 | 12.00244 | 3516 ft | 202 kts | 217° |
| 2026-05-05 18:20 | 48.38996 | 11.99353 | 3532 ft | 205 kts | 230° |
| 2026-05-05 18:20 | 48.38370 | 11.97478 | 3569 ft | 202 kts | 258° |
| 2026-05-05 18:20 | 48.38033 | 11.95435 | 3608 ft | 204 kts | 258° |
| 2026-05-05 18:21 | 48.37738 | 11.93297 | 3522 ft | 213 kts | 260° |
| 2026-05-05 18:21 | 48.37405 | 11.91149 | 3389 ft | 209 kts | 263° |
| 2026-05-05 18:21 | 48.37224 | 11.88996 | 3216 ft | 204 kts | 266° |
| 2026-05-05 18:21 | 48.37017 | 11.86316 | 2613 ft | 192 kts | 267° |
| 2026-05-05 18:22 | 48.36929 | 11.84959 | 2282 ft | 192 kts | 265° |
| 2026-05-05 18:22 | 48.36789 | 11.83010 | 1819 ft | 188 kts | 263° |
| 2026-05-05 18:22 | 48.36677 | 11.81154 | 1773 ft | 164 kts | 263° |
| 2026-05-05 18:22 | 48.36730 | 11.79434 | 2393 ft | 164 kts | 296° |
| 2026-05-05 18:23 | 48.37613 | 11.78421 | 3047 ft | 176 kts | 349° |
| 2026-05-05 18:23 | 48.38863 | 11.78972 | 3320 ft | 207 kts | 32° |
| 2026-05-05 18:23 | 48.40005 | 11.80438 | 3418 ft | 224 kts | 39° |
| 2026-05-05 18:23 | 48.41158 | 11.82111 | 3473 ft | 235 kts | 40° |
| 2026-05-05 18:24 | 48.42297 | 11.83929 | 3499 ft | 243 kts | 54° |
| 2026-05-05 18:24 | 48.42799 | 11.86382 | 3506 ft | 250 kts | 79° |
| 2026-05-05 18:24 | 48.42995 | 11.89006 | 3497 ft | 254 kts | 83° |
| 2026-05-05 18:24 | 48.43148 | 11.91659 | 3507 ft | 255 kts | 84° |
| 2026-05-05 18:25 | 48.43290 | 11.94289 | 3495 ft | 256 kts | 83° |
| 2026-05-05 18:25 | 48.43373 | 11.96098 | 3504 ft | 256 kts | 83° |
| 2026-05-05 18:25 | 48.43534 | 11.99644 | 3498 ft | 257 kts | 84° |
| 2026-05-05 18:25 | 48.43647 | 12.02325 | 3489 ft | 254 kts | 86° |
| 2026-05-05 18:26 | 48.43218 | 12.04872 | 3488 ft | 257 kts | 123° |
| 2026-05-05 18:26 | 48.41877 | 12.06554 | 3491 ft | 246 kts | 161° |
| 2026-05-05 18:26 | 48.40313 | 12.06655 | 3492 ft | 215 kts | 204° |
| 2026-05-05 18:26 | 48.39278 | 12.05302 | 3504 ft | 192 kts | 249° |
| 2026-05-05 18:27 | 48.38873 | 12.03370 | 3511 ft | 199 kts | 257° |
| 2026-05-05 18:27 | 48.38550 | 12.01299 | 3515 ft | 207 kts | 260° |
| 2026-05-05 18:27 | 48.38250 | 11.99160 | 3516 ft | 209 kts | 261° |
| 2026-05-05 18:27 | 48.37985 | 11.97122 | 3503 ft | 196 kts | 261° |
| 2026-05-05 18:28 | 48.37517 | 11.93068 | 3009 ft | 198 kts | 266° |
| 2026-05-05 18:28 | 48.37374 | 11.91009 | 2741 ft | 198 kts | 266° |
| 2026-05-05 18:28 | 48.37223 | 11.88965 | 2467 ft | 198 kts | 265° |
| 2026-05-05 18:29 | 48.37074 | 11.86917 | 2138 ft | 197 kts | 264° |
| 2026-05-05 18:29 | 48.36927 | 11.84861 | 1836 ft | 198 kts | 261° |
| 2026-05-05 18:29 | 48.36781 | 11.82933 | 1818 ft | 173 kts | 262° |
| 2026-05-05 18:29 | 48.36647 | 11.81252 | 1761 ft | 152 kts | 261° |
| 2026-05-05 18:30 | 48.36782 | 11.79655 | 2111 ft | 162 kts | 307° |
| 2026-05-05 18:30 | 48.37743 | 11.78938 | 2903 ft | 172 kts | 358° |
| 2026-05-05 18:30 | 48.38883 | 11.79804 | 3241 ft | 200 kts | 38° |
| 2026-05-05 18:30 | 48.39940 | 11.81329 | 3392 ft | 220 kts | 41° |
| 2026-05-05 18:31 | 48.41035 | 11.83048 | 3459 ft | 233 kts | 44° |
| 2026-05-05 18:31 | 48.42151 | 11.84886 | 3484 ft | 241 kts | 48° |
| 2026-05-05 18:31 | 48.42734 | 11.87268 | 3502 ft | 249 kts | 79° |
| 2026-05-05 18:31 | 48.42957 | 11.89878 | 3505 ft | 253 kts | 82° |
| 2026-05-05 18:32 | 48.43116 | 11.92527 | 3514 ft | 256 kts | 83° |
| 2026-05-05 18:32 | 48.43253 | 11.95214 | 3528 ft | 259 kts | 84° |
| 2026-05-05 18:32 | 48.43377 | 11.97888 | 3505 ft | 259 kts | 84° |
| 2026-05-05 18:32 | 48.43494 | 12.00595 | 3485 ft | 258 kts | 89° |
| 2026-05-05 18:33 | 48.42954 | 12.03053 | 3477 ft | 244 kts | 128° |
| 2026-05-05 18:33 | 48.41612 | 12.04406 | 3481 ft | 229 kts | 169° |
| 2026-05-05 18:33 | 48.40119 | 12.04159 | 3493 ft | 211 kts | 214° |
| 2026-05-05 18:33 | 48.39042 | 12.02798 | 3498 ft | 199 kts | 230° |
| 2026-05-05 18:34 | 48.38489 | 12.00973 | 3519 ft | 192 kts | 259° |
| 2026-05-05 18:34 | 48.38174 | 11.98976 | 3539 ft | 196 kts | 261° |
| 2026-05-05 18:34 | 48.37908 | 11.96974 | 3542 ft | 189 kts | 259° |
| 2026-05-05 18:34 | 48.37721 | 11.95209 | 3494 ft | 157 kts | 269° |
| 2026-05-05 18:35 | 48.37596 | 11.93493 | 3264 ft | 179 kts | 250° |
| 2026-05-05 18:35 | 48.37321 | 11.91549 | 3110 ft | 203 kts | 265° |
| 2026-05-05 18:35 | 48.37219 | 11.89450 | 2773 ft | 198 kts | 268° |
| 2026-05-05 18:35 | 48.37089 | 11.87433 | 2475 ft | 190 kts | 266° |
| 2026-05-05 18:36 | 48.36950 | 11.85510 | 2132 ft | 182 kts | 263° |
| 2026-05-05 18:36 | 48.36801 | 11.83585 | 1833 ft | 188 kts | 265° |
| 2026-05-05 18:36 | 48.36706 | 11.81745 | 2253 ft | 171 kts | 266° |
| 2026-05-05 18:36 | 48.36478 | 11.80095 | 2777 ft | 158 kts | 244° |
| 2026-05-05 18:37 | 48.35528 | 11.79299 | 3102 ft | 168 kts | 187° |
| 2026-05-05 18:37 | 48.34302 | 11.79360 | 3338 ft | 187 kts | 179° |
| 2026-05-05 18:37 | 48.32945 | 11.79575 | 3441 ft | 203 kts | 176° |
| 2026-05-05 18:37 | 48.31512 | 11.79856 | 3490 ft | 211 kts | 175° |
| 2026-05-05 18:38 | 48.30037 | 11.80170 | 3495 ft | 216 kts | 174° |
| 2026-05-05 18:38 | 48.28561 | 11.80491 | 4135 ft | 209 kts | 175° |
| 2026-05-05 18:38 | 48.27139 | 11.80388 | 4618 ft | 208 kts | 208° |
| 2026-05-05 18:38 | 48.25931 | 11.79148 | 4825 ft | 215 kts | 215° |
| 2026-05-05 18:39 | 48.24464 | 11.78616 | 4914 ft | 234 kts | 176° |
| 2026-05-05 18:39 | 48.22907 | 11.79178 | 5187 ft | 232 kts | 164° |
| 2026-05-05 18:39 | 48.21455 | 11.79939 | 6040 ft | 211 kts | 163° |
| 2026-05-05 18:39 | 48.20122 | 11.80626 | 6897 ft | 196 kts | 165° |
| 2026-05-05 18:40 | 48.18859 | 11.81242 | 7713 ft | 192 kts | 167° |
| 2026-05-05 18:40 | 48.17479 | 11.81876 | 7773 ft | 220 kts | 167° |
| 2026-05-05 18:40 | 48.15958 | 11.82561 | 7789 ft | 235 kts | 167° |
| 2026-05-05 18:40 | 48.14366 | 11.83285 | 7788 ft | 242 kts | 166° |
| 2026-05-05 18:41 | 48.12872 | 11.84452 | 7793 ft | 251 kts | 137° |
| 2026-05-05 18:41 | 48.12081 | 11.86800 | 7767 ft | 263 kts | 101° |
| 2026-05-05 18:41 | 48.12335 | 11.89367 | 7765 ft | 257 kts | 64° |
| 2026-05-05 18:41 | 48.13531 | 11.91220 | 7764 ft | 236 kts | 30° |
| 2026-05-05 18:42 | 48.15034 | 11.92141 | 7762 ft | 236 kts | 11° |
| 2026-05-05 18:42 | 48.16648 | 11.92251 | 7768 ft | 237 kts | 349° |
| 2026-05-05 18:42 | 48.18188 | 11.91443 | 7776 ft | 234 kts | 326° |
| 2026-05-05 18:42 | 48.19370 | 11.89824 | 7770 ft | 230 kts | 300° |
| 2026-05-05 18:43 | 48.19974 | 11.87666 | 7774 ft | 222 kts | 275° |
| 2026-05-05 18:43 | 48.19831 | 11.85405 | 7774 ft | 219 kts | 248° |
| 2026-05-05 18:43 | 48.19020 | 11.83514 | 7774 ft | 215 kts | 231° |
| 2026-05-05 18:43 | 48.18096 | 11.81739 | 7776 ft | 216 kts | 231° |
| 2026-05-05 18:44 | 48.17170 | 11.79961 | 7774 ft | 217 kts | 232° |
| 2026-05-05 18:44 | 48.16239 | 11.78175 | 7777 ft | 218 kts | 231° |
| 2026-05-05 18:44 | 48.15304 | 11.76391 | 7772 ft | 216 kts | 230° |
| 2026-05-05 18:44 | 48.14136 | 11.75062 | 7770 ft | 218 kts | 201° |
| 2026-05-05 18:45 | 48.12628 | 11.74893 | 7777 ft | 223 kts | 169° |
| 2026-05-05 18:45 | 48.11281 | 11.76043 | 7780 ft | 230 kts | 135° |
| 2026-05-05 18:45 | 48.10594 | 11.78200 | 7780 ft | 238 kts | 100° |
| 2026-05-05 18:45 | 48.10899 | 11.80625 | 7781 ft | 244 kts | 61° |
| 2026-05-05 18:46 | 48.12133 | 11.82303 | 7778 ft | 244 kts | 21° |
| 2026-05-05 18:46 | 48.13779 | 11.82573 | 7795 ft | 238 kts | 350° |
| 2026-05-05 18:46 | 48.15418 | 11.82232 | 7796 ft | 239 kts | 348° |
| 2026-05-05 18:46 | 48.17064 | 11.81876 | 7788 ft | 239 kts | 349° |
| 2026-05-05 18:47 | 48.18719 | 11.81519 | 7788 ft | 241 kts | 348° |
| 2026-05-05 18:47 | 48.20385 | 11.81166 | 7789 ft | 241 kts | 348° |
| 2026-05-05 18:47 | 48.22022 | 11.80816 | 7788 ft | 241 kts | 349° |
| 2026-05-05 18:47 | 48.23678 | 11.80541 | 7789 ft | 240 kts | 359° |
| 2026-05-05 18:48 | 48.25265 | 11.81288 | 7787 ft | 245 kts | 34° |
| 2026-05-05 18:48 | 48.26340 | 11.83235 | 7795 ft | 244 kts | 70° |
| 2026-05-05 18:48 | 48.26539 | 11.85705 | 7801 ft | 239 kts | 102° |
| 2026-05-05 18:48 | 48.25858 | 11.87903 | 7793 ft | 231 kts | 136° |
| 2026-05-05 18:49 | 48.24589 | 11.89206 | 7790 ft | 223 kts | 165° |
| 2026-05-05 18:49 | 48.23081 | 11.89397 | 7797 ft | 218 kts | 192° |
| 2026-05-05 18:49 | 48.21715 | 11.88479 | 7791 ft | 217 kts | 219° |
| 2026-05-05 18:49 | 48.20717 | 11.86797 | 7791 ft | 217 kts | 231° |
| 2026-05-05 18:50 | 48.19795 | 11.85025 | 7781 ft | 219 kts | 231° |
| 2026-05-05 18:50 | 48.18860 | 11.83225 | 7788 ft | 218 kts | 231° |
| 2026-05-05 18:50 | 48.17926 | 11.81433 | 7788 ft | 218 kts | 231° |
| 2026-05-05 18:50 | 48.16993 | 11.79646 | 7789 ft | 217 kts | 231° |
| 2026-05-05 18:51 | 48.16063 | 11.77865 | 7787 ft | 217 kts | 231° |
| 2026-05-05 18:51 | 48.15232 | 11.76004 | 7780 ft | 215 kts | 248° |
| 2026-05-05 18:51 | 48.15172 | 11.73777 | 7790 ft | 222 kts | 283° |
| 2026-05-05 18:51 | 48.16079 | 11.71897 | 7795 ft | 232 kts | 323° |
| 2026-05-05 18:52 | 48.17637 | 11.71296 | 7790 ft | 241 kts | 4° |
| 2026-05-05 18:52 | 48.19148 | 11.72349 | 7790 ft | 246 kts | 45° |
| 2026-05-05 18:52 | 48.19889 | 11.74591 | 7797 ft | 242 kts | 86° |
| 2026-05-05 18:52 | 48.19618 | 11.76981 | 7797 ft | 236 kts | 115° |
| 2026-05-05 18:53 | 48.18938 | 11.79248 | 7790 ft | 236 kts | 120° |
| 2026-05-05 18:53 | 48.18240 | 11.81438 | 7790 ft | 236 kts | 119° |
| 2026-05-05 18:53 | 48.17482 | 11.83591 | 7786 ft | 233 kts | 121° |
| 2026-05-05 18:53 | 48.16751 | 11.85762 | 7785 ft | 234 kts | 119° |
| 2026-05-05 18:54 | 48.16011 | 11.87981 | 7520 ft | 244 kts | 119° |
| 2026-05-05 18:54 | 48.15252 | 11.90273 | 7151 ft | 250 kts | 119° |
| 2026-05-05 18:54 | 48.14477 | 11.92617 | 6782 ft | 253 kts | 120° |
| 2026-05-05 18:54 | 48.14041 | 11.95149 | 6412 ft | 261 kts | 88° |
| 2026-05-05 18:55 | 48.14625 | 11.97759 | 6054 ft | 270 kts | 61° |
| 2026-05-05 18:55 | 48.15801 | 11.99920 | 5682 ft | 269 kts | 39° |
| 2026-05-05 18:55 | 48.17253 | 12.01662 | 5319 ft | 272 kts | 37° |
| 2026-05-05 18:55 | 48.18760 | 12.03365 | 4941 ft | 270 kts | 35° |
| 2026-05-05 18:56 | 48.20264 | 12.05028 | 4568 ft | 267 kts | 34° |
| 2026-05-05 18:56 | 48.21752 | 12.06686 | 4252 ft | 266 kts | 33° |
| 2026-05-05 18:56 | 48.23220 | 12.08326 | 4094 ft | 260 kts | 34° |
| 2026-05-05 18:56 | 48.24648 | 12.09929 | 4021 ft | 254 kts | 35° |
| 2026-05-05 18:57 | 48.26047 | 12.11507 | 4004 ft | 251 kts | 34° |
| 2026-05-05 18:57 | 48.27388 | 12.13020 | 3986 ft | 249 kts | 34° |
| 2026-05-05 18:57 | 48.28873 | 12.14216 | 3982 ft | 241 kts | 7° |
| 2026-05-05 18:57 | 48.30528 | 12.14330 | 3978 ft | 239 kts | 356° |
| 2026-05-05 18:58 | 48.32194 | 12.14246 | 3980 ft | 240 kts | 354° |
| 2026-05-05 18:58 | 48.33829 | 12.14108 | 3972 ft | 222 kts | 353° |
| 2026-05-05 18:58 | 48.35142 | 12.13338 | 3960 ft | 198 kts | 313° |
| 2026-05-05 18:58 | 48.35886 | 12.11719 | 3967 ft | 188 kts | 300° |
| 2026-05-05 18:59 | 48.36349 | 12.09850 | 3981 ft | 194 kts | 282° |
| 2026-05-05 18:59 | 48.36467 | 12.07786 | 3994 ft | 203 kts | 270° |
| 2026-05-05 18:59 | 48.36374 | 12.05654 | 3987 ft | 205 kts | 267° |
| 2026-05-05 18:59 | 48.36215 | 12.03524 | 3990 ft | 206 kts | 266° |
| 2026-05-05 19:00 | 48.36061 | 12.01493 | 3982 ft | 190 kts | 266° |
| 2026-05-05 19:00 | 48.35926 | 11.99561 | 3999 ft | 182 kts | 266° |
| 2026-05-05 19:00 | 48.35791 | 11.97691 | 3994 ft | 179 kts | 266° |
| 2026-05-05 19:00 | 48.35652 | 11.95831 | 3729 ft | 183 kts | 267° |
| 2026-05-05 19:01 | 48.35507 | 11.93900 | 3366 ft | 188 kts | 266° |
| 2026-05-05 19:01 | 48.35356 | 11.91956 | 3054 ft | 189 kts | 266° |
| 2026-05-05 19:01 | 48.35206 | 11.90005 | 2719 ft | 190 kts | 266° |
| 2026-05-05 19:01 | 48.35058 | 11.88033 | 2340 ft | 192 kts | 265° |
| 2026-05-05 19:02 | 48.34907 | 11.86055 | 2215 ft | 181 kts | 264° |
| 2026-05-05 19:02 | 48.34770 | 11.84311 | 2212 ft | 156 kts | 267° |
| 2026-05-05 19:02 | 48.34651 | 11.82763 | 2170 ft | 152 kts | 265° |
| 2026-05-05 19:02 | 48.34500 | 11.81130 | 2811 ft | 165 kts | 265° |
| 2026-05-05 19:03 | 48.33997 | 11.79477 | 3167 ft | 195 kts | 226° |
| 2026-05-05 19:03 | 48.32627 | 11.78760 | 3345 ft | 229 kts | 181° |
| 2026-05-05 19:03 | 48.31133 | 11.79609 | 3432 ft | 243 kts | 140° |
| 2026-05-05 19:03 | 48.29944 | 11.81462 | 3465 ft | 249 kts | 130° |
| 2026-05-05 19:04 | 48.28831 | 11.83495 | 3466 ft | 254 kts | 128° |
| 2026-05-05 19:04 | 48.28126 | 11.85853 | 3474 ft | 249 kts | 95° |
| 2026-05-05 19:04 | 48.28000 | 11.88458 | 3488 ft | 252 kts | 89° |
| 2026-05-05 19:04 | 48.28090 | 11.91072 | 3482 ft | 251 kts | 81° |
| 2026-05-05 19:05 | 48.28311 | 11.93672 | 3482 ft | 252 kts | 79° |
| 2026-05-05 19:05 | 48.28566 | 11.96279 | 3484 ft | 254 kts | 79° |
| 2026-05-05 19:05 | 48.28980 | 11.98819 | 3477 ft | 247 kts | 58° |
| 2026-05-05 19:05 | 48.30189 | 12.00518 | 3479 ft | 239 kts | 19° |
| 2026-05-05 19:06 | 48.31789 | 12.00649 | 3490 ft | 232 kts | 339° |
| 2026-05-05 19:06 | 48.33011 | 11.99219 | 3502 ft | 228 kts | 303° |
| 2026-05-05 19:06 | 48.33795 | 11.97153 | 3489 ft | 228 kts | 297° |
| 2026-05-05 19:06 | 48.34491 | 11.95014 | 3478 ft | 227 kts | 295° |
| 2026-05-05 19:07 | 48.34995 | 11.92777 | 3483 ft | 227 kts | 283° |
| 2026-05-05 19:07 | 48.35138 | 11.90423 | 3172 ft | 221 kts | 271° |
| 2026-05-05 19:07 | 48.35051 | 11.88165 | 2789 ft | 211 kts | 267° |
| 2026-05-05 19:07 | 48.34897 | 11.86032 | 2429 ft | 199 kts | 266° |
| 2026-05-05 19:08 | 48.34743 | 11.84017 | 2025 ft | 190 kts | 264° |
| 2026-05-05 19:08 | 48.34608 | 11.82111 | 1892 ft | 175 kts | 264° |
| 2026-05-05 19:08 | 48.34487 | 11.80316 | 1881 ft | 186 kts | 264° |
| 2026-05-05 19:08 | 48.34245 | 11.78331 | 2388 ft | 189 kts | 245° |
| 2026-05-05 19:09 | 48.33213 | 11.77045 | 2859 ft | 212 kts | 201° |
| 2026-05-05 19:09 | 48.31701 | 11.77211 | 3198 ft | 233 kts | 157° |
| 2026-05-05 19:09 | 48.30439 | 11.78792 | 3361 ft | 242 kts | 132° |
| 2026-05-05 19:09 | 48.29332 | 11.80750 | 3423 ft | 249 kts | 129° |
| 2026-05-05 19:10 | 48.28293 | 11.82830 | 3465 ft | 249 kts | 115° |
| 2026-05-05 19:10 | 48.28001 | 11.85356 | 3477 ft | 247 kts | 85° |
| 2026-05-05 19:10 | 48.28095 | 11.87955 | 3487 ft | 251 kts | 82° |
| 2026-05-05 19:10 | 48.28266 | 11.90577 | 3486 ft | 252 kts | 81° |
| 2026-05-05 19:11 | 48.28465 | 11.93194 | 3481 ft | 253 kts | 80° |
| 2026-05-05 19:11 | 48.28677 | 11.95819 | 3469 ft | 254 kts | 80° |
| 2026-05-05 19:11 | 48.28898 | 11.98461 | 3461 ft | 255 kts | 80° |
| 2026-05-05 19:11 | 48.29114 | 12.01096 | 3465 ft | 254 kts | 81° |
| 2026-05-05 19:12 | 48.29345 | 12.03723 | 3471 ft | 254 kts | 80° |
| 2026-05-05 19:12 | 48.29745 | 12.06220 | 3470 ft | 248 kts | 57° |
| 2026-05-05 19:12 | 48.30969 | 12.07908 | 3468 ft | 238 kts | 18° |
| 2026-05-05 19:12 | 48.32558 | 12.08010 | 3480 ft | 231 kts | 339° |
| 2026-05-05 19:13 | 48.33804 | 12.06607 | 3480 ft | 214 kts | 310° |
| 2026-05-05 19:13 | 48.34667 | 12.04965 | 3470 ft | 189 kts | 307° |
| 2026-05-05 19:13 | 48.35385 | 12.03420 | 3462 ft | 169 kts | 301° |
| 2026-05-05 19:13 | 48.35778 | 12.01855 | 3471 ft | 155 kts | 284° |
| 2026-05-05 19:14 | 48.35909 | 12.00216 | 3462 ft | 163 kts | 273° |
| 2026-05-05 19:14 | 48.35860 | 11.98557 | 3463 ft | 151 kts | 266° |
| 2026-05-05 19:14 | 48.35742 | 11.97085 | 3473 ft | 136 kts | 268° |
| 2026-05-05 19:14 | 48.35631 | 11.95644 | 3476 ft | 148 kts | 267° |
| 2026-05-05 19:15 | 48.35513 | 11.94007 | 3491 ft | 166 kts | 267° |
| 2026-05-05 19:15 | 48.35376 | 11.92192 | 3281 ft | 185 kts | 267° |
| 2026-05-05 19:15 | 48.35224 | 11.90213 | 2908 ft | 192 kts | 265° |
| 2026-05-05 19:15 | 48.35071 | 11.88264 | 2535 ft | 183 kts | 265° |
| 2026-05-05 19:16 | 48.34931 | 11.86400 | 2152 ft | 176 kts | 265° |
| 2026-05-05 19:16 | 48.34794 | 11.84647 | 1977 ft | 158 kts | 265° |
| 2026-05-05 19:16 | 48.34649 | 11.83088 | 1924 ft | 148 kts | 264° |
| 2026-05-05 19:16 | 48.34511 | 11.81516 | 2067 ft | 156 kts | 263° |
| 2026-05-05 19:17 | 48.34337 | 11.79954 | 2742 ft | 157 kts | 264° |
| 2026-05-05 19:17 | 48.33886 | 11.78399 | 3121 ft | 180 kts | 226° |
| 2026-05-05 19:17 | 48.32627 | 11.77812 | 3324 ft | 208 kts | 176° |
| 2026-05-05 19:17 | 48.31318 | 11.78810 | 3422 ft | 221 kts | 133° |
| 2026-05-05 19:18 | 48.30336 | 11.80632 | 3452 ft | 229 kts | 126° |
| 2026-05-05 19:18 | 48.29396 | 11.82599 | 3462 ft | 233 kts | 124° |
| 2026-05-05 19:18 | 48.28457 | 11.84593 | 3469 ft | 235 kts | 124° |
| 2026-05-05 19:18 | 48.27545 | 11.86640 | 3473 ft | 234 kts | 114° |
| 2026-05-05 19:19 | 48.27299 | 11.88998 | 3493 ft | 230 kts | 85° |
| 2026-05-05 19:19 | 48.27399 | 11.91375 | 3487 ft | 231 kts | 81° |
| 2026-05-05 19:19 | 48.27573 | 11.93772 | 3484 ft | 232 kts | 80° |
| 2026-05-05 19:19 | 48.27779 | 11.96181 | 3489 ft | 234 kts | 80° |
| 2026-05-05 19:20 | 48.28005 | 11.98599 | 3481 ft | 234 kts | 78° |
| 2026-05-05 19:20 | 48.28216 | 12.01020 | 3484 ft | 234 kts | 78° |
| 2026-05-05 19:20 | 48.28442 | 12.03431 | 3473 ft | 233 kts | 79° |
| 2026-05-05 19:20 | 48.28803 | 12.05754 | 3492 ft | 226 kts | 58° |
| 2026-05-05 19:21 | 48.29944 | 12.07238 | 3481 ft | 217 kts | 14° |
| 2026-05-05 19:21 | 48.31377 | 12.07116 | 3497 ft | 208 kts | 331° |
| 2026-05-05 19:21 | 48.32323 | 12.05541 | 3501 ft | 207 kts | 299° |
| 2026-05-05 19:21 | 48.32945 | 12.03585 | 3478 ft | 208 kts | 295° |
| 2026-05-05 19:22 | 48.33508 | 12.01623 | 3474 ft | 208 kts | 293° |
| 2026-05-05 19:22 | 48.34069 | 11.99606 | 3481 ft | 209 kts | 292° |
| 2026-05-05 19:22 | 48.34617 | 11.97598 | 3499 ft | 204 kts | 293° |
| 2026-05-05 19:22 | 48.35094 | 11.95623 | 3495 ft | 199 kts | 286° |
| 2026-05-05 19:23 | 48.35316 | 11.93599 | 3482 ft | 194 kts | 275° |
| 2026-05-05 19:23 | 48.35310 | 11.91578 | 3403 ft | 196 kts | 270° |
| 2026-05-05 19:23 | 48.35180 | 11.89477 | 3034 ft | 204 kts | 265° |
| 2026-05-05 19:23 | 48.35005 | 11.87363 | 2653 ft | 202 kts | 265° |
| 2026-05-05 19:24 | 48.34844 | 11.85316 | 2292 ft | 202 kts | 264° |
| 2026-05-05 19:24 | 48.34684 | 11.83179 | 1894 ft | 201 kts | 264° |
| 2026-05-05 19:24 | 48.34539 | 11.81146 | 1839 ft | 184 kts | 265° |
| 2026-05-05 19:24 | 48.34409 | 11.79372 | 1834 ft | 159 kts | 264° |
| 2026-05-05 19:25 | 48.34302 | 11.77800 | 1841 ft | 161 kts | 265° |
| 2026-05-05 19:25 | 48.34134 | 11.76119 | 2577 ft | 168 kts | 253° |
| 2026-05-05 19:25 | 48.33270 | 11.74724 | 2968 ft | 197 kts | 221° |
| 2026-05-05 19:25 | 48.32078 | 11.73502 | 3257 ft | 217 kts | 218° |
| 2026-05-05 19:26 | 48.30761 | 11.72246 | 3379 ft | 230 kts | 216° |
| 2026-05-05 19:26 | 48.29380 | 11.70940 | 3430 ft | 238 kts | 217° |
| 2026-05-05 19:26 | 48.27979 | 11.69668 | 3458 ft | 241 kts | 215° |
| 2026-05-05 19:26 | 48.26537 | 11.68353 | 3470 ft | 243 kts | 216° |
| 2026-05-05 19:27 | 48.25078 | 11.67049 | 3481 ft | 244 kts | 215° |
| 2026-05-05 19:27 | 48.23618 | 11.65740 | 3493 ft | 245 kts | 215° |
| 2026-05-05 19:27 | 48.22176 | 11.64441 | 3490 ft | 245 kts | 215° |
| 2026-05-05 19:27 | 48.20723 | 11.63120 | 3490 ft | 244 kts | 215° |
| 2026-05-05 19:28 | 48.19277 | 11.61806 | 3489 ft | 243 kts | 215° |
| 2026-05-05 19:28 | 48.17949 | 11.60576 | 3495 ft | 243 kts | 216° |
| 2026-05-05 19:28 | 48.16471 | 11.59223 | 3510 ft | 242 kts | 214° |
| 2026-05-05 19:28 | 48.15040 | 11.57890 | 3530 ft | 240 kts | 219° |
| 2026-05-05 19:29 | 48.14094 | 11.55952 | 3527 ft | 232 kts | 258° |
| 2026-05-05 19:29 | 48.14014 | 11.55182 | 3520 ft | 229 kts | 271° |